Time;durP1;ratioP1;P1;durP2;ratioP2;P2;SDS_P1;SDS_P2;PMS_P1;PMS_P2;Temp;Humidity;BMP_temperature;BMP_pressure;BME280_temperature;BME280_humidity;BME280_pressure;Samples;Min_cycle;Max_cycle;Signal;HPM_P1;HPM_P2
2022/07/25 00:00:38;;;;;;;26.20;15.73;;;19.20;99.90;;;;;;4837590;29;20037;-76
2022/07/25 00:03:04;;;;;;;25.05;15.45;;;19.10;99.90;;;;;;4839997;29;20497;-75
2022/07/25 00:05:30;;;;;;;22.85;15.63;;;19.20;99.90;;;;;;4837300;29;20034;-77
2022/07/25 00:07:56;;;;;;;24.95;15.77;;;19.10;99.90;;;;;;4838874;29;20067;-76
2022/07/25 00:10:22;;;;;;;23.65;14.52;;;19.10;99.90;;;;;;4838922;29;20038;-77
2022/07/25 00:12:47;;;;;;;21.95;14.82;;;19.10;99.90;;;;;;4839695;29;20034;-77
2022/07/25 00:15:13;;;;;;;24.58;15.43;;;19.10;99.90;;;;;;4839804;29;20041;-77
2022/07/25 00:17:39;;;;;;;22.25;14.15;;;18.90;99.90;;;;;;4837776;29;20036;-76
2022/07/25 00:20:06;;;;;;;24.80;14.50;;;19.00;99.90;;;;;;4838583;29;20045;-76
2022/07/25 00:22:32;;;;;;;21.45;14.02;;;19.00;99.90;;;;;;4837792;29;20145;-76
2022/07/25 00:24:58;;;;;;;23.70;14.88;;;19.10;99.90;;;;;;4838725;29;20469;-76
2022/07/25 00:27:23;;;;;;;21.15;14.63;;;18.90;99.90;;;;;;4837376;29;20109;-76
2022/07/25 00:29:49;;;;;;;24.48;14.93;;;18.90;99.90;;;;;;4838067;29;20759;-76
2022/07/25 00:32:15;;;;;;;21.95;14.35;;;18.90;99.90;;;;;;4821841;29;20049;-76
2022/07/25 00:34:40;;;;;;;21.63;14.85;;;19.10;99.90;;;;;;4840197;29;20034;-77
2022/07/25 00:37:06;;;;;;;26.10;14.35;;;19.40;99.90;;;;;;4840192;29;20473;-76
2022/07/25 00:39:32;;;;;;;24.88;14.98;;;19.50;99.90;;;;;;4836538;29;20504;-76
2022/07/25 00:41:57;;;;;;;22.23;14.75;;;19.70;99.90;;;;;;4837930;29;20034;-77
2022/07/25 00:44:29;;;;;;;21.13;14.23;;;19.80;99.90;;;;;;4836509;29;20110;-78
2022/07/25 00:46:56;;;;;;;21.08;12.93;;;19.90;99.90;;;;;;4830259;29;20103;-77
2022/07/25 00:49:22;;;;;;;22.60;14.00;;;20.10;99.90;;;;;;4836330;29;20413;-76
2022/07/25 00:51:48;;;;;;;23.02;14.00;;;20.10;99.90;;;;;;4833987;29;20042;-77
2022/07/25 00:54:14;;;;;;;23.15;14.55;;;20.10;99.90;;;;;;4829528;29;20033;-77
2022/07/25 00:56:40;;;;;;;19.50;13.65;;;20.10;99.90;;;;;;4839409;29;21757;-76
2022/07/25 00:59:06;;;;;;;23.48;14.75;;;20.30;99.90;;;;;;4838390;29;20034;-76
2022/07/25 01:01:32;;;;;;;23.90;14.50;;;20.30;99.90;;;;;;4835998;29;20822;-76
2022/07/25 01:03:57;;;;;;;23.00;13.98;;;20.40;99.90;;;;;;4838323;29;20638;-76
2022/07/25 01:06:24;;;;;;;22.90;14.15;;;20.50;99.90;;;;;;4830404;29;20041;-77
2022/07/25 01:08:50;;;;;;;20.90;14.75;;;20.80;99.90;;;;;;4836173;29;20076;-77
2022/07/25 01:11:16;;;;;;;24.10;13.70;;;20.90;99.90;;;;;;4839239;29;20489;-77
2022/07/25 01:13:41;;;;;;;25.33;14.30;;;20.70;99.90;;;;;;4836321;29;20045;-76
2022/07/25 01:16:07;;;;;;;22.50;14.82;;;20.80;99.90;;;;;;4839587;29;20553;-75
2022/07/25 01:18:33;;;;;;;19.67;13.77;;;20.50;99.90;;;;;;4835613;29;21003;-76
2022/07/25 01:20:59;;;;;;;23.63;14.82;;;20.50;99.90;;;;;;4836354;29;20485;-76
2022/07/25 01:23:26;;;;;;;21.88;14.13;;;20.50;99.90;;;;;;4836674;29;20086;-77
2022/07/25 01:25:51;;;;;;;22.50;14.30;;;20.30;99.90;;;;;;4837275;29;20546;-77
2022/07/25 01:28:17;;;;;;;23.73;15.10;;;20.50;99.90;;;;;;4837319;29;20026;-77
2022/07/25 01:30:43;;;;;;;26.52;14.52;;;20.10;99.90;;;;;;4835300;29;20041;-75
2022/07/25 01:33:13;;;;;;;20.90;13.95;;;19.90;99.90;;;;;;4835737;29;20481;-76
2022/07/25 01:35:39;;;;;;;24.25;14.73;;;20.10;99.90;;;;;;4837519;29;21739;-77
2022/07/25 01:38:04;;;;;;;20.67;13.73;;;20.10;99.90;;;;;;4837858;29;20041;-77
2022/07/25 01:40:30;;;;;;;21.15;13.77;;;19.60;99.90;;;;;;4820215;29;20034;-76
2022/07/25 01:42:56;;;;;;;22.35;14.88;;;19.40;99.90;;;;;;4835777;29;20034;-77
2022/07/25 01:45:21;;;;;;;21.10;13.93;;;19.30;99.90;;;;;;4836786;29;20041;-77
2022/07/25 01:47:47;;;;;;;23.35;14.55;;;19.40;99.90;;;;;;4838935;29;20041;-76
2022/07/25 01:50:13;;;;;;;23.33;14.43;;;19.70;99.90;;;;;;4835834;29;20058;-76
2022/07/25 01:52:39;;;;;;;19.88;14.15;;;19.50;99.90;;;;;;4835937;29;20033;-75
2022/07/25 01:55:05;;;;;;;20.45;13.93;;;19.40;99.90;;;;;;4838186;29;20041;-76
2022/07/25 01:57:31;;;;;;;24.30;14.38;;;19.40;99.90;;;;;;4836766;29;20037;-75
2022/07/25 01:59:58;;;;;;;22.95;14.30;;;19.50;99.90;;;;;;4837478;29;20042;-77
2022/07/25 02:02:23;;;;;;;23.63;15.02;;;19.10;99.90;;;;;;4833942;29;20057;-75
2022/07/25 02:04:49;;;;;;;22.70;14.75;;;19.00;99.90;;;;;;4835791;29;20709;-75
2022/07/25 02:07:15;;;;;;;23.33;15.05;;;19.00;99.90;;;;;;4835949;29;20381;-75
2022/07/25 02:09:40;;;;;;;25.27;15.63;;;18.90;99.90;;;;;;4836453;29;20035;-76
2022/07/25 02:12:06;;;;;;;26.13;15.35;;;18.70;99.90;;;;;;4821208;29;20109;-76
2022/07/25 02:14:32;;;;;;;25.88;14.73;;;18.60;99.90;;;;;;4834721;29;20041;-75
2022/07/25 02:16:58;;;;;;;22.58;14.60;;;18.60;99.90;;;;;;4820836;29;20434;-76
2022/07/25 02:19:24;;;;;;;24.90;15.82;;;18.70;99.90;;;;;;4834533;29;20034;-76
2022/07/25 02:21:49;;;;;;;24.95;15.60;;;18.70;99.90;;;;;;4835342;29;20034;-76
2022/07/25 02:24:15;;;;;;;27.23;15.35;;;18.90;99.90;;;;;;4837553;29;20125;-75
2022/07/25 02:26:41;;;;;;;26.45;15.40;;;19.00;99.90;;;;;;4837127;29;20030;-76
2022/07/25 02:29:07;;;;;;;25.20;15.05;;;19.10;99.90;;;;;;4838878;29;20030;-75
2022/07/25 02:31:32;;;;;;;22.25;14.48;;;19.00;99.90;;;;;;4837396;29;20041;-75
2022/07/25 02:33:58;;;;;;;25.05;14.77;;;19.10;99.90;;;;;;4838946;29;20034;-75
2022/07/25 02:36:24;;;;;;;25.33;15.02;;;18.90;99.90;;;;;;4836878;29;20855;-76
2022/07/25 02:38:50;;;;;;;23.80;14.20;;;19.20;99.90;;;;;;4839223;29;20045;-76
2022/07/25 02:41:15;;;;;;;22.80;14.32;;;19.40;99.90;;;;;;4840232;29;20034;-75
2022/07/25 02:43:41;;;;;;;21.80;13.80;;;19.70;99.90;;;;;;4837332;29;20676;-75
2022/07/25 02:46:07;;;;;;;23.50;13.07;;;20.10;99.90;;;;;;4821169;29;20108;-75
2022/07/25 02:48:32;;;;;;;23.30;14.50;;;20.30;99.90;;;;;;4838236;29;20038;-76
2022/07/25 02:50:58;;;;;;;20.67;14.35;;;20.20;99.90;;;;;;4837314;29;20089;-77
2022/07/25 02:53:24;;;;;;;24.83;14.70;;;20.30;99.90;;;;;;4837758;29;20045;-76
2022/07/25 02:55:49;;;;;;;22.23;13.95;;;20.50;99.90;;;;;;4838295;29;20037;-76
2022/07/25 02:58:15;;;;;;;20.65;13.80;;;20.20;99.90;;;;;;4838066;29;20034;-76
2022/07/25 03:00:41;;;;;;;23.02;14.48;;;20.00;99.90;;;;;;4835372;29;20109;-75
2022/07/25 03:03:07;;;;;;;20.80;14.30;;;20.00;99.90;;;;;;4837278;29;20062;-72
2022/07/25 03:05:32;;;;;;;21.13;13.35;;;19.90;99.90;;;;;;4819277;29;20034;-73
2022/07/25 03:07:58;;;;;;;23.75;14.77;;;20.00;99.90;;;;;;4837451;29;20086;-73
2022/07/25 03:10:24;;;;;;;23.55;14.13;;;20.10;99.90;;;;;;4836054;29;20884;-75
2022/07/25 03:12:49;;;;;;;19.88;13.80;;;20.20;99.90;;;;;;4835772;29;21893;-74
2022/07/25 03:15:15;;;;;;;21.48;14.07;;;20.20;99.90;;;;;;4837690;29;20470;-74
2022/07/25 03:17:41;;;;;;;25.23;14.60;;;19.70;99.90;;;;;;4837831;29;20613;-73
2022/07/25 03:20:08;;;;;;;21.83;13.35;;;19.50;99.90;;;;;;4837852;29;20034;-74
2022/07/25 03:22:33;;;;;;;20.98;14.27;;;19.60;99.90;;;;;;4821069;29;20038;-74
2022/07/25 03:24:59;;;;;;;21.23;14.23;;;19.70;99.90;;;;;;4838615;29;20045;-73
2022/07/25 03:27:25;;;;;;;21.95;14.45;;;19.40;99.90;;;;;;4837629;29;20034;-75
2022/07/25 03:29:51;;;;;;;23.02;14.82;;;19.40;99.90;;;;;;4838445;29;20050;-74
2022/07/25 03:32:17;;;;;;;24.98;14.00;;;19.10;99.90;;;;;;4838504;29;20034;-74
2022/07/25 03:34:42;;;;;;;22.67;14.23;;;18.90;99.90;;;;;;4837048;29;20088;-74
2022/07/25 03:37:08;;;;;;;22.70;14.82;;;19.00;99.90;;;;;;4838365;29;20522;-74
2022/07/25 03:39:34;;;;;;;22.30;14.63;;;19.20;99.90;;;;;;4837814;29;20126;-74
2022/07/25 03:42:00;;;;;;;22.73;14.50;;;18.90;99.90;;;;;;4838348;29;20041;-74
2022/07/25 03:44:25;;;;;;;20.08;14.23;;;19.00;99.90;;;;;;4837911;29;20101;-75
2022/07/25 03:46:51;;;;;;;24.95;15.10;;;19.00;99.90;;;;;;4838240;29;20076;-74
2022/07/25 03:49:17;;;;;;;23.98;15.05;;;18.90;99.90;;;;;;4837288;29;20094;-74
2022/07/25 03:51:43;;;;;;;22.85;14.95;;;18.70;99.90;;;;;;4837474;29;20050;-74
2022/07/25 03:54:12;;;;;;;23.17;15.13;;;18.70;99.90;;;;;;4840716;29;20116;-74
2022/07/25 03:56:43;;;;;;;24.92;15.35;;;18.70;99.90;;;;;;4840785;29;20034;-72
2022/07/25 03:59:10;;;;;;;26.52;14.63;;;18.60;99.90;;;;;;4841593;29;20030;-74
2022/07/25 04:01:36;;;;;;;24.33;15.35;;;18.60;99.90;;;;;;4840512;29;20521;-73
2022/07/25 04:04:03;;;;;;;24.50;15.52;;;18.50;99.90;;;;;;4840093;29;20143;-75
2022/07/25 04:06:29;;;;;;;23.17;15.20;;;18.40;99.90;;;;;;4840505;29;20762;-75
2022/07/25 04:08:55;;;;;;;25.17;15.05;;;18.40;99.90;;;;;;4841198;29;20388;-74
2022/07/25 04:11:21;;;;;;;41.45;16.20;;;18.30;99.90;;;;;;4840871;29;20034;-74
2022/07/25 04:13:48;;;;;;;25.23;15.38;;;18.10;99.90;;;;;;4840876;29;20026;-74
2022/07/25 04:16:14;;;;;;;22.90;14.98;;;18.00;99.90;;;;;;4841381;29;20034;-75
2022/07/25 04:18:40;;;;;;;24.85;15.95;;;18.10;99.90;;;;;;4839750;29;20761;-75
2022/07/25 04:21:06;;;;;;;23.73;15.57;;;18.10;99.90;;;;;;4841266;29;20049;-74
2022/07/25 04:23:33;;;;;;;24.25;16.30;;;18.20;99.90;;;;;;4823180;29;20378;-75
2022/07/25 04:25:59;;;;;;;26.80;16.67;;;18.30;99.90;;;;;;4841250;29;20038;-75
2022/07/25 04:28:25;;;;;;;23.17;15.20;;;18.40;99.90;;;;;;4841456;29;20045;-75
2022/07/25 04:30:51;;;;;;;26.85;15.23;;;18.50;99.90;;;;;;4840568;29;20086;-74
2022/07/25 04:33:17;;;;;;;25.42;14.77;;;18.60;99.90;;;;;;4841033;29;20038;-74
2022/07/25 04:35:43;;;;;;;24.40;15.30;;;18.50;99.90;;;;;;4840129;29;20382;-74
2022/07/25 04:38:09;;;;;;;25.98;16.02;;;18.60;99.90;;;;;;4842447;29;20061;-74
2022/07/25 04:40:35;;;;;;;28.02;16.70;;;18.70;99.90;;;;;;4840066;29;20070;-74
2022/07/25 04:43:01;;;;;;;23.75;14.80;;;18.70;99.90;;;;;;4840956;29;20050;-74
2022/07/25 04:45:27;;;;;;;24.02;15.57;;;18.70;99.90;;;;;;4840508;29;20055;-75
2022/07/25 04:47:53;;;;;;;22.25;14.93;;;18.80;99.90;;;;;;4840251;29;20038;-74
2022/07/25 04:50:19;;;;;;;27.17;15.90;;;18.90;99.90;;;;;;4840428;29;20058;-74
2022/07/25 04:52:44;;;;;;;22.35;14.90;;;19.00;99.90;;;;;;4839043;29;20511;-74
2022/07/25 04:55:10;;;;;;;21.90;15.00;;;19.00;99.90;;;;;;4840574;29;20087;-74
2022/07/25 04:57:36;;;;;;;24.40;14.90;;;19.10;99.90;;;;;;4839775;29;20129;-75
2022/07/25 05:00:06;;;;;;;24.08;14.57;;;19.20;99.90;;;;;;4840333;29;20113;-74
2022/07/25 05:02:32;;;;;;;26.00;15.50;;;19.40;99.90;;;;;;4839643;29;20117;-75
2022/07/25 05:04:58;;;;;;;23.38;14.45;;;19.40;99.90;;;;;;4839139;29;20045;-74
2022/07/25 05:07:24;;;;;;;23.80;14.82;;;19.40;99.90;;;;;;4839568;29;20038;-74
2022/07/25 05:09:49;;;;;;;24.52;15.30;;;19.50;99.90;;;;;;4839512;29;20465;-74
2022/07/25 05:12:15;;;;;;;25.02;15.85;;;19.50;99.90;;;;;;4840475;29;20482;-74
2022/07/25 05:14:41;;;;;;;24.00;15.20;;;19.60;99.90;;;;;;4839518;29;20057;-74
2022/07/25 05:17:06;;;;;;;25.40;15.43;;;19.60;99.90;;;;;;4840563;29;20034;-74
2022/07/25 05:19:32;;;;;;;24.77;14.95;;;19.70;99.90;;;;;;4822782;29;20037;-75
2022/07/25 05:21:58;;;;;;;24.35;15.13;;;19.80;99.90;;;;;;4839541;29;20034;-74
2022/07/25 05:24:24;;;;;;;23.48;15.27;;;19.90;99.90;;;;;;4840055;29;20046;-74
2022/07/25 05:26:49;;;;;;;22.88;14.98;;;20.10;99.90;;;;;;4839161;29;20026;-74
2022/07/25 05:29:15;;;;;;;23.83;14.98;;;20.30;99.90;;;;;;4839993;29;20034;-74
2022/07/25 05:31:41;;;;;;;23.20;15.32;;;20.50;99.90;;;;;;4822765;29;20034;-74
2022/07/25 05:34:07;;;;;;;21.77;14.38;;;20.70;99.90;;;;;;4839712;29;20042;-74
2022/07/25 05:36:33;;;;;;;21.83;14.23;;;20.80;99.90;;;;;;4839111;29;20118;-75
2022/07/25 05:38:59;;;;;;;26.33;14.73;;;20.90;99.90;;;;;;4839208;29;20122;-74
2022/07/25 05:41:25;;;;;;;21.40;14.23;;;21.10;99.90;;;;;;4839798;29;20041;-75
2022/07/25 05:43:51;;;;;;;21.80;14.93;;;21.40;99.90;;;;;;4838838;29;20041;-75
2022/07/25 05:46:17;;;;;;;21.77;14.68;;;21.60;99.90;;;;;;4839577;29;20037;-74
2022/07/25 05:48:43;;;;;;;21.50;14.48;;;21.80;99.90;;;;;;4838769;29;20065;-73
2022/07/25 05:51:09;;;;;;;20.00;14.52;;;21.90;99.90;;;;;;4839640;29;20134;-74
2022/07/25 05:53:34;;;;;;;20.23;14.00;;;21.90;99.90;;;;;;4837968;29;20065;-76
2022/07/25 05:56:00;;;;;;;21.60;14.38;;;21.90;99.90;;;;;;4839458;29;20033;-74
2022/07/25 05:58:26;;;;;;;21.92;14.50;;;22.00;99.90;;;;;;4839510;29;20096;-75
2022/07/25 06:00:52;;;;;;;19.08;13.85;;;22.10;99.90;;;;;;4838658;29;20089;-75
2022/07/25 06:03:18;;;;;;;20.60;14.32;;;22.30;99.90;;;;;;4839715;29;20109;-74
2022/07/25 06:05:45;;;;;;;19.50;13.55;;;22.50;99.90;;;;;;4837978;29;20037;-75
2022/07/25 06:08:12;;;;;;;20.00;14.02;;;22.70;99.90;;;;;;4806938;29;20074;-74
2022/07/25 06:10:38;;;;;;;20.35;14.13;;;22.80;99.90;;;;;;4820251;29;20038;-75
2022/07/25 06:13:04;;;;;;;23.63;14.60;;;23.00;99.90;;;;;;4821204;29;20046;-75
2022/07/25 06:15:29;;;;;;;20.05;14.45;;;23.10;99.90;;;;;;4820932;29;20038;-74
2022/07/25 06:17:55;;;;;;;21.90;15.73;;;23.30;99.90;;;;;;4820570;29;20042;-75
2022/07/25 06:20:21;;;;;;;20.42;14.43;;;23.40;99.90;;;;;;4820962;29;20042;-74
2022/07/25 06:22:47;;;;;;;24.05;14.55;;;23.50;99.90;;;;;;4834685;29;20057;-75
2022/07/25 06:25:13;;;;;;;19.90;14.70;;;23.70;99.90;;;;;;4839039;29;20026;-74
2022/07/25 06:27:39;;;;;;;23.00;15.07;;;23.80;99.90;;;;;;4838050;29;20037;-75
2022/07/25 06:30:07;;;;;;;24.13;15.05;;;24.10;99.90;;;;;;4838750;29;20091;-74
2022/07/25 06:32:32;;;;;;;24.15;15.65;;;24.20;99.90;;;;;;4822516;29;20478;-75
2022/07/25 06:34:58;;;;;;;20.88;15.00;;;24.50;99.90;;;;;;4837744;29;20094;-74
2022/07/25 06:37:24;;;;;;;22.83;15.00;;;24.70;99.90;;;;;;4822550;29;20042;-74
2022/07/25 06:39:50;;;;;;;21.60;14.75;;;24.80;99.90;;;;;;4838068;29;20452;-74
2022/07/25 06:42:16;;;;;;;19.15;14.35;;;24.90;99.90;;;;;;4841099;29;20105;-75
2022/07/25 06:44:42;;;;;;;20.70;14.70;;;25.10;99.90;;;;;;4838133;29;20478;-75
2022/07/25 06:47:11;;;;;;;19.05;14.30;;;25.30;99.90;;;;;;4838908;29;20104;-75
2022/07/25 06:49:46;;;;;;;19.20;13.77;;;25.50;99.90;;;;;;4837061;29;20058;-75
2022/07/25 06:52:12;;;;;;;19.42;14.55;;;25.70;99.90;;;;;;4838435;29;20485;-74
2022/07/25 06:54:37;;;;;;;19.45;14.57;;;25.90;99.90;;;;;;4838212;29;20030;-75
2022/07/25 06:57:03;;;;;;;21.30;14.40;;;26.20;99.90;;;;;;4838492;29;20034;-74
2022/07/25 06:59:29;;;;;;;18.20;13.43;;;26.40;99.90;;;;;;4838941;29;20034;-74
2022/07/25 07:01:54;;;;;;;19.02;13.80;;;26.70;99.90;;;;;;4836443;29;20229;-75
2022/07/25 07:04:20;;;;;;;19.70;13.82;;;26.90;99.90;;;;;;4821580;29;20065;-74
2022/07/25 07:06:46;;;;;;;19.65;14.10;;;27.10;99.90;;;;;;4837872;29;20034;-74
2022/07/25 07:09:11;;;;;;;19.10;14.60;;;27.40;99.90;;;;;;4838207;29;20034;-73
2022/07/25 07:11:37;;;;;;;18.20;13.77;;;27.50;99.90;;;;;;4837245;29;20104;-76
2022/07/25 07:14:03;;;;;;;17.98;13.77;;;27.70;99.90;;;;;;4838366;29;20037;-74
2022/07/25 07:16:30;;;;;;;17.80;13.52;;;27.70;99.90;;;;;;4838481;29;20038;-74
2022/07/25 07:18:58;;;;;;;17.33;14.13;;;27.90;99.90;;;;;;4837622;29;20038;-73
2022/07/25 07:21:24;;;;;;;19.55;14.45;;;27.90;99.90;;;;;;4838352;29;20039;-75
2022/07/25 07:23:50;;;;;;;17.95;14.18;;;28.00;99.90;;;;;;4837720;29;20060;-75
2022/07/25 07:26:15;;;;;;;21.58;15.23;;;28.00;99.90;;;;;;4837500;29;20066;-75
2022/07/25 07:28:41;;;;;;;20.60;14.32;;;28.20;99.90;;;;;;4839437;29;20030;-75
2022/07/25 07:31:07;;;;;;;19.70;14.85;;;28.20;99.90;;;;;;4842019;29;20104;-75
2022/07/25 07:33:34;;;;;;;17.98;13.88;;;28.20;98.80;;;;;;4841765;29;20030;-75
2022/07/25 07:36:00;;;;;;;17.40;13.45;;;28.40;99.90;;;;;;4841083;29;20103;-74
2022/07/25 07:38:26;;;;;;;22.17;14.05;;;28.60;98.80;;;;;;4841988;29;20022;-75
2022/07/25 07:40:52;;;;;;;22.15;14.95;;;28.80;97.30;;;;;;4840060;29;20638;-76
2022/07/25 07:43:18;;;;;;;17.08;14.10;;;28.80;98.00;;;;;;4825079;29;20358;-75
2022/07/25 07:45:44;;;;;;;18.83;14.00;;;28.90;97.80;;;;;;4840773;29;20393;-74
2022/07/25 07:48:11;;;;;;;18.23;14.63;;;28.90;99.10;;;;;;4841767;29;20038;-74
2022/07/25 07:50:37;;;;;;;19.05;13.70;;;29.00;98.00;;;;;;4841646;29;20492;-75
2022/07/25 07:53:03;;;;;;;22.60;14.35;;;29.10;97.90;;;;;;4841512;29;20086;-74
2022/07/25 07:55:44;;;;;;;20.13;14.43;;;29.20;97.70;;;;;;4841018;29;20034;-74
2022/07/25 07:58:17;;;;;;;26.80;14.45;;;29.30;99.50;;;;;;4841223;29;20381;-75
2022/07/25 08:00:45;;;;;;;24.73;14.00;;;29.30;96.70;;;;;;4840941;29;20045;-75
2022/07/25 08:03:10;;;;;;;18.95;13.32;;;29.20;95.60;;;;;;4841562;29;20144;-74
2022/07/25 08:05:40;;;;;;;21.42;14.93;;;29.10;95.60;;;;;;4841588;29;20558;-75
2022/07/25 08:08:07;;;;;;;21.40;14.27;;;29.20;96.40;;;;;;4841216;29;20485;-74
2022/07/25 08:10:36;;;;;;;21.73;13.60;;;29.20;94.50;;;;;;4840055;29;20052;-74
2022/07/25 08:13:11;;;;;;;21.65;13.95;;;29.20;95.40;;;;;;4840610;29;20493;-75
2022/07/25 08:15:37;;;;;;;21.20;14.07;;;29.30;93.60;;;;;;4841210;29;20041;-74
2022/07/25 08:18:03;;;;;;;29.10;13.73;;;29.30;94.10;;;;;;4840583;29;20034;-73
2022/07/25 08:20:29;;;;;;;19.00;13.73;;;29.40;93.50;;;;;;4841320;29;20074;-75
2022/07/25 08:22:55;;;;;;;18.42;13.63;;;29.40;91.50;;;;;;4840748;29;20385;-74
2022/07/25 08:25:21;;;;;;;19.98;14.18;;;29.50;91.60;;;;;;4840426;29;20040;-75
2022/07/25 08:27:48;;;;;;;18.85;14.40;;;29.50;91.90;;;;;;4840394;29;20562;-76
2022/07/25 08:30:15;;;;;;;18.63;13.45;;;29.70;93.20;;;;;;4841086;29;20042;-76
2022/07/25 08:32:53;;;;;;;22.08;13.73;;;29.70;90.50;;;;;;4840814;29;20034;-75
2022/07/25 08:35:20;;;;;;;22.73;14.63;;;29.80;91.80;;;;;;4841035;29;20041;-75
2022/07/25 08:37:46;;;;;;;19.40;13.75;;;29.90;92.90;;;;;;4842674;29;20529;-74
2022/07/25 08:40:13;;;;;;;18.83;13.30;;;30.10;91.30;;;;;;4840039;29;20049;-74
2022/07/25 08:42:40;;;;;;;19.27;13.85;;;30.10;91.10;;;;;;4840717;29;20030;-76
2022/07/25 08:45:08;;;;;;;18.50;13.88;;;30.00;91.30;;;;;;4840344;29;20033;-76
2022/07/25 08:47:35;;;;;;;20.10;14.35;;;29.90;89.90;;;;;;4839458;29;20119;-75
2022/07/25 08:50:07;;;;;;;18.77;14.00;;;30.00;88.10;;;;;;4839027;29;20195;-76
2022/07/25 08:52:36;;;;;;;22.20;14.60;;;30.00;91.80;;;;;;4840718;29;20049;-77
2022/07/25 08:55:06;;;;;;;18.98;14.20;;;30.10;90.50;;;;;;4839877;29;20206;-75
2022/07/25 08:57:33;;;;;;;19.10;13.65;;;30.20;88.00;;;;;;4840576;29;20470;-75
2022/07/25 08:59:59;;;;;;;18.75;13.73;;;30.20;89.60;;;;;;4839660;29;20034;-74
2022/07/25 09:02:26;;;;;;;19.25;14.30;;;30.40;90.90;;;;;;4840699;29;20089;-74
2022/07/25 09:04:52;;;;;;;18.23;13.38;;;30.50;85.40;;;;;;4838963;29;20053;-77
2022/07/25 09:07:29;;;;;;;18.38;13.98;;;30.50;87.70;;;;;;4840614;29;20065;-75
2022/07/25 09:09:55;;;;;;;18.20;13.77;;;30.50;86.50;;;;;;4839588;29;20042;-73
2022/07/25 09:12:25;;;;;;;18.85;13.77;;;30.50;85.10;;;;;;4823727;29;20041;-75
2022/07/25 09:14:51;;;;;;;22.40;13.48;;;30.50;90.30;;;;;;4839596;29;20030;-74
2022/07/25 09:17:17;;;;;;;17.98;13.38;;;30.60;86.50;;;;;;4839562;29;20484;-75
2022/07/25 09:19:52;;;;;;;22.63;13.27;;;30.70;86.20;;;;;;4839942;29;20037;-75
2022/07/25 09:22:18;;;;;;;16.70;12.98;;;30.90;85.20;;;;;;4840342;29;20044;-74
2022/07/25 09:24:44;;;;;;;15.93;12.88;;;30.90;81.80;;;;;;4839806;29;20034;-75
2022/07/25 09:27:10;;;;;;;15.98;12.30;;;30.90;82.20;;;;;;4839803;29;20033;-74
2022/07/25 09:29:39;;;;;;;16.15;12.48;;;30.90;78.80;;;;;;4840039;29;20045;-73
2022/07/25 09:32:19;;;;;;;15.25;12.43;;;31.00;80.20;;;;;;4838820;29;20030;-73
2022/07/25 09:34:47;;;;;;;18.00;12.75;;;31.10;79.10;;;;;;4839747;29;20592;-73
2022/07/25 09:37:16;;;;;;;16.58;12.90;;;31.20;82.10;;;;;;4839932;29;20033;-73
2022/07/25 09:39:44;;;;;;;17.20;12.80;;;31.30;79.90;;;;;;4839922;29;20037;-76
2022/07/25 09:42:14;;;;;;;15.60;12.35;;;31.30;78.80;;;;;;4839355;29;20500;-75
2022/07/25 09:44:40;;;;;;;17.45;12.65;;;31.40;77.30;;;;;;4839964;29;20795;-77
2022/07/25 09:47:10;;;;;;;18.10;13.45;;;31.50;78.70;;;;;;4838397;29;20045;-76
2022/07/25 09:49:43;;;;;;;17.77;12.75;;;31.70;79.00;;;;;;4839434;29;20057;-75
2022/07/25 09:52:12;;;;;;;17.70;12.98;;;31.70;77.00;;;;;;4838685;29;20038;-75
2022/07/25 09:54:39;;;;;;;18.20;12.82;;;31.70;76.50;;;;;;4838877;29;20096;-75
2022/07/25 09:57:05;;;;;;;15.13;11.55;;;31.80;78.60;;;;;;4838642;29;20046;-73
2022/07/25 09:59:33;;;;;;;21.55;11.50;;;31.90;72.50;;;;;;4839541;29;20022;-74
2022/07/25 10:02:11;;;;;;;15.45;11.43;;;31.70;71.10;;;;;;4838342;29;20444;-74
2022/07/25 10:05:13;;;;;;;15.40;11.73;;;31.70;72.30;;;;;;4839479;29;20030;-75
2022/07/25 10:07:43;;;;;;;15.52;11.50;;;31.90;73.80;;;;;;4821711;29;20042;-75
2022/07/25 10:10:26;;;;;;;15.93;10.85;;;32.20;73.90;;;;;;4837700;29;20045;-72
2022/07/25 10:13:06;;;;;;;11.98;9.55;;;32.30;69.30;;;;;;4838293;29;20106;-74
2022/07/25 10:15:52;;;;;;;12.73;10.13;;;32.40;67.20;;;;;;4839407;29;20041;-76
2022/07/25 10:18:24;;;;;;;12.68;9.68;;;32.30;66.40;;;;;;4838608;29;20390;-74
2022/07/25 10:20:52;;;;;;;15.73;10.10;;;32.40;67.40;;;;;;4820562;29;20038;-75
2022/07/25 10:23:20;;;;;;;11.50;9.88;;;32.40;63.70;;;;;;4821478;29;20034;-75
2022/07/25 10:25:46;;;;;;;11.75;9.70;;;32.50;63.70;;;;;;4820935;29;20038;-76
2022/07/25 10:28:18;;;;;;;20.23;9.70;;;32.60;63.20;;;;;;4820483;29;20110;-75
2022/07/25 10:30:43;;;;;;;13.00;9.20;;;32.40;62.90;;;;;;4821252;29;20066;-75
2022/07/25 10:33:20;;;;;;;13.15;10.05;;;32.50;59.70;;;;;;4820631;29;20058;-75
2022/07/25 10:35:46;;;;;;;14.00;8.68;;;32.60;60.80;;;;;;4839318;29;20057;-75
2022/07/25 10:38:12;;;;;;;10.88;7.43;;;32.80;57.20;;;;;;4838008;29;20030;-71
2022/07/25 10:40:43;;;;;;;14.75;8.32;;;32.70;56.80;;;;;;4838880;29;20141;-73
2022/07/25 10:43:13;;;;;;;10.98;8.73;;;32.90;58.30;;;;;;4840457;29;20022;-74
2022/07/25 10:45:50;;;;;;;;;;;33.20;58.40;;;;;;4822939;29;20485;-75
2022/07/25 10:48:28;;;;;;;11.52;8.90;;;33.50;57.60;;;;;;4838254;29;20403;-76
2022/07/25 10:51:07;;;;;;;15.45;9.60;;;33.50;58.80;;;;;;4837663;29;20058;-74
2022/07/25 10:53:34;;;;;;;11.90;10.27;;;33.50;57.60;;;;;;4838969;29;20030;-75
2022/07/25 10:56:23;;;;;;;11.57;8.80;;;33.40;55.30;;;;;;4837997;29;20046;-74
2022/07/25 10:58:59;;;;;;;12.37;9.70;;;33.30;56.20;;;;;;4823068;29;20040;-76
2022/07/25 11:01:29;;;;;;;15.13;9.57;;;33.50;55.10;;;;;;4838714;29;20045;-72
2022/07/25 11:04:01;;;;;;;12.68;9.35;;;33.50;54.20;;;;;;4841357;29;20045;-76
2022/07/25 11:06:38;;;;;;;11.50;8.82;;;33.80;58.70;;;;;;4842057;29;20489;-76
2022/07/25 11:09:17;;;;;;;10.20;8.60;;;33.90;54.50;;;;;;4842190;29;20378;-75
2022/07/25 11:11:47;;;;;;;12.70;9.40;;;33.80;54.20;;;;;;4842595;29;20102;-74
2022/07/25 11:14:22;;;;;;;10.85;9.05;;;33.60;55.30;;;;;;4841800;29;20029;-75
2022/07/25 11:16:51;;;;;;;12.63;10.07;;;33.40;56.00;;;;;;4842559;29;20037;-74
2022/07/25 11:19:25;;;;;;;10.95;9.40;;;33.40;54.80;;;;;;4841320;29;20065;-75
2022/07/25 11:21:54;;;;;;;16.45;9.90;;;33.50;57.00;;;;;;4842006;29;20046;-76
2022/07/25 11:24:21;;;;;;;11.23;9.68;;;33.70;55.30;;;;;;4842302;29;20446;-74
2022/07/25 11:26:53;;;;;;;10.45;8.93;;;33.60;53.80;;;;;;4842244;29;20045;-75
2022/07/25 11:29:23;;;;;;;14.27;9.27;;;33.50;54.80;;;;;;4842276;29;20080;-74
2022/07/25 11:31:58;;;;;;;13.18;9.20;;;33.50;55.70;;;;;;4841905;29;20112;-74
2022/07/25 11:34:31;;;;;;;14.52;10.40;;;33.70;55.00;;;;;;4841633;29;20062;-73
2022/07/25 11:36:59;;;;;;;15.13;10.30;;;33.70;54.60;;;;;;4841316;29;20034;-76
2022/07/25 11:39:26;;;;;;;16.02;9.80;;;34.10;52.90;;;;;;4842124;29;20145;-72
2022/07/25 11:42:18;;;;;;;15.00;10.63;;;34.20;54.10;;;;;;4841410;29;20094;-74
2022/07/25 11:44:45;;;;;;;15.73;9.93;;;34.00;54.70;;;;;;4838662;29;20050;-72
2022/07/25 11:47:28;;;;;;;13.75;10.40;;;34.10;54.30;;;;;;4841189;29;20058;-73
2022/07/25 11:49:59;;;;;;;14.52;10.27;;;33.70;54.10;;;;;;4840746;29;20060;-73
2022/07/25 11:52:30;;;;;;;13.32;10.48;;;33.60;54.20;;;;;;4841621;29;20116;-73
2022/07/25 11:55:07;;;;;;;16.10;10.48;;;33.60;54.40;;;;;;4840458;29;20026;-73
2022/07/25 11:57:41;;;;;;;13.25;10.57;;;33.60;53.60;;;;;;4842045;29;20385;-76
2022/07/25 12:00:16;;;;;;;15.82;10.63;;;33.80;53.60;;;;;;4840807;29;20038;-75
2022/07/25 12:02:42;;;;;;;15.02;10.57;;;34.10;53.70;;;;;;4841108;29;20034;-75
2022/07/25 12:05:10;;;;;;;20.00;10.88;;;34.40;54.40;;;;;;4840685;29;20041;-75
2022/07/25 12:07:40;;;;;;;16.15;11.63;;;34.50;53.40;;;;;;4841508;29;20038;-73
2022/07/25 12:10:08;;;;;;;15.60;10.45;;;34.30;52.80;;;;;;4840620;29;20044;-77
2022/07/25 12:12:43;;;;;;;16.88;11.43;;;34.20;53.50;;;;;;4841518;29;20021;-75
2022/07/25 12:15:12;;;;;;;13.73;10.15;;;34.40;53.00;;;;;;4840350;29;20158;-76
2022/07/25 12:17:38;;;;;;;14.48;11.35;;;34.40;52.70;;;;;;4840813;29;20381;-76
2022/07/25 12:20:09;;;;;;;14.35;11.48;;;34.40;53.80;;;;;;4840557;29;20033;-73
2022/07/25 12:22:35;;;;;;;19.77;11.23;;;34.50;54.60;;;;;;4841262;29;20464;-73
2022/07/25 12:25:01;;;;;;;14.20;11.90;;;34.20;53.40;;;;;;4840395;29;20135;-75
2022/07/25 12:27:26;;;;;;;16.45;11.73;;;34.30;54.70;;;;;;4841607;29;20037;-75
2022/07/25 12:29:52;;;;;;;14.07;11.60;;;34.20;54.40;;;;;;4841084;29;20072;-75